Time;durP1;ratioP1;P1;durP2;ratioP2;P2;SDS_P1;SDS_P2;PMS_P1;PMS_P2;Temp;Humidity;BMP_temperature;BMP_pressure;BME280_temperature;BME280_humidity;BME280_pressure;Samples;Min_cycle;Max_cycle;Signal;HPM_P1;HPM_P2
2021/04/16 00:00:45;;;;;;;8.20;4.90;;;3.10;94.10;;;;;;5051639;28;20283;-61
2021/04/16 00:03:12;;;;;;;7.03;4.53;;;3.00;94.20;;;;;;5051378;28;20206;-64
2021/04/16 00:05:40;;;;;;;9.13;5.60;;;2.90;94.40;;;;;;5051491;28;20205;-59
2021/04/16 00:08:08;;;;;;;7.27;5.33;;;2.80;94.50;;;;;;5051270;28;20237;-61
2021/04/16 00:10:39;;;;;;;7.07;4.93;;;2.80;94.60;;;;;;5051459;28;20255;-61
2021/04/16 00:13:06;;;;;;;7.57;4.80;;;2.70;94.80;;;;;;5051462;28;20225;-60
2021/04/16 00:15:36;;;;;;;7.23;5.00;;;2.70;94.90;;;;;;5051275;28;20210;-61
2021/04/16 00:18:05;;;;;;;7.70;4.67;;;2.70;95.10;;;;;;5051559;28;20233;-60
2021/04/16 00:20:32;;;;;;;6.47;4.60;;;2.70;95.40;;;;;;5051751;28;20198;-61
2021/04/16 00:22:59;;;;;;;6.13;4.60;;;2.60;95.40;;;;;;5051645;28;20216;-60
2021/04/16 00:25:29;;;;;;;9.03;4.53;;;2.60;95.40;;;;;;5051144;28;20305;-60
2021/04/16 00:27:56;;;;;;;6.90;5.03;;;2.60;95.40;;;;;;5050427;28;20229;-60
2021/04/16 00:30:24;;;;;;;6.60;5.20;;;2.60;95.40;;;;;;5051117;28;20252;-62
2021/04/16 00:32:51;;;;;;;7.80;5.13;;;2.60;95.60;;;;;;5051004;28;20201;-63
2021/04/16 00:35:17;;;;;;;7.60;5.53;;;2.50;95.90;;;;;;5051303;28;20209;-61
2021/04/16 00:37:43;;;;;;;7.57;5.67;;;2.40;96.00;;;;;;5050890;28;20232;-60
2021/04/16 00:40:13;;;;;;;9.07;4.93;;;2.30;96.10;;;;;;5050946;28;20669;-60
2021/04/16 00:42:41;;;;;;;7.03;4.50;;;2.30;96.10;;;;;;5050742;28;20681;-60
2021/04/16 00:45:09;;;;;;;7.23;4.83;;;2.40;96.20;;;;;;5050984;28;20279;-63
2021/04/16 00:47:36;;;;;;;6.40;4.53;;;2.30;96.10;;;;;;5050805;28;20256;-62
2021/04/16 00:50:10;;;;;;;6.27;4.50;;;2.30;96.10;;;;;;5050575;28;20225;-62
2021/04/16 00:52:36;;;;;;;6.83;4.60;;;2.30;96.10;;;;;;5050918;28;20216;-60
2021/04/16 00:55:05;;;;;;;5.70;4.40;;;2.30;96.20;;;;;;5050520;28;20225;-62
2021/04/16 00:57:31;;;;;;;5.63;4.40;;;2.20;96.20;;;;;;5050490;28;20237;-59
2021/04/16 00:59:59;;;;;;;7.07;4.63;;;2.20;96.30;;;;;;5051077;28;20201;-63
2021/04/16 01:02:26;;;;;;;5.07;3.97;;;2.20;96.50;;;;;;5050831;28;20210;-60
2021/04/16 01:04:52;;;;;;;5.63;3.80;;;2.10;96.50;;;;;;5050645;28;20197;-62
2021/04/16 01:07:20;;;;;;;6.67;4.40;;;2.10;96.70;;;;;;5050545;28;20233;-63
2021/04/16 01:09:48;;;;;;;6.13;3.87;;;2.00;96.90;;;;;;5050391;28;20233;-60
2021/04/16 01:12:16;;;;;;;7.80;4.70;;;2.00;97.00;;;;;;5050811;28;20209;-62
2021/04/16 01:14:44;;;;;;;5.27;3.97;;;2.00;97.30;;;;;;5050595;28;20202;-60
2021/04/16 01:17:13;;;;;;;6.03;3.90;;;1.90;97.40;;;;;;5050705;28;20280;-61
2021/04/16 01:19:45;;;;;;;5.90;4.03;;;1.80;97.60;;;;;;5050370;28;20205;-61
2021/04/16 01:22:17;;;;;;;5.30;4.40;;;1.80;97.70;;;;;;5050323;28;20221;-62
2021/04/16 01:24:45;;;;;;;7.43;4.20;;;1.80;97.80;;;;;;5050502;28;20217;-60
2021/04/16 01:27:12;;;;;;;5.87;4.20;;;1.80;97.80;;;;;;5050413;28;20723;-61
2021/04/16 01:29:41;;;;;;;6.27;3.70;;;1.80;97.80;;;;;;5050367;28;20236;-60
2021/04/16 01:32:09;;;;;;;5.40;3.70;;;1.80;97.90;;;;;;5050549;28;20209;-61
2021/04/16 01:34:36;;;;;;;5.60;4.10;;;1.70;97.90;;;;;;5050430;28;20332;-61
2021/04/16 01:37:03;;;;;;;5.87;4.40;;;1.70;98.00;;;;;;5050738;28;20226;-61
2021/04/16 01:39:31;;;;;;;7.23;4.47;;;1.60;98.30;;;;;;5054424;28;20669;-60
2021/04/16 01:41:59;;;;;;;5.93;3.90;;;1.50;98.50;;;;;;5054752;28;20213;-60
2021/04/16 01:44:28;;;;;;;5.93;4.27;;;1.50;98.70;;;;;;5054581;28;20201;-60
2021/04/16 01:46:57;;;;;;;5.37;4.03;;;1.50;98.70;;;;;;5054340;28;20221;-61
2021/04/16 01:49:25;;;;;;;7.50;3.80;;;1.50;98.70;;;;;;5054251;28;20209;-64
2021/04/16 01:51:52;;;;;;;6.30;3.83;;;1.60;98.80;;;;;;5054476;28;20216;-60
2021/04/16 01:54:23;;;;;;;8.00;3.97;;;1.60;98.70;;;;;;5054360;28;20228;-61
2021/04/16 01:56:51;;;;;;;6.20;3.80;;;1.60;98.70;;;;;;5053775;28;20237;-60
2021/04/16 01:59:21;;;;;;;5.20;3.87;;;1.60;98.80;;;;;;5053857;28;20661;-62
2021/04/16 02:01:48;;;;;;;4.87;3.50;;;1.50;99.00;;;;;;5054222;28;20206;-60
2021/04/16 02:04:14;;;;;;;4.37;3.20;;;1.50;99.10;;;;;;5054014;28;20202;-61
2021/04/16 02:06:41;;;;;;;5.07;3.60;;;1.50;99.20;;;;;;5054091;28;20216;-62
2021/04/16 02:09:10;;;;;;;6.00;3.47;;;1.40;99.30;;;;;;5053906;28;20630;-60
2021/04/16 02:11:38;;;;;;;5.83;3.27;;;1.30;99.20;;;;;;5053799;28;20201;-61
2021/04/16 02:14:05;;;;;;;6.40;3.17;;;1.30;99.50;;;;;;5053751;28;20210;-61
2021/04/16 02:16:33;;;;;;;3.20;2.83;;;1.20;99.70;;;;;;5053358;28;20673;-61
2021/04/16 02:18:59;;;;;;;6.70;2.87;;;1.00;99.90;;;;;;5053558;28;20205;-61
2021/04/16 02:21:25;;;;;;;4.37;3.00;;;1.00;99.90;;;;;;5053496;28;20569;-63
2021/04/16 02:23:51;;;;;;;4.53;3.03;;;1.00;99.90;;;;;;5053353;28;20206;-62
2021/04/16 02:26:17;;;;;;;5.10;3.33;;;1.00;99.90;;;;;;5053472;28;20205;-62
2021/04/16 02:28:44;;;;;;;9.40;5.00;;;1.00;99.90;;;;;;5053901;28;20227;-61
2021/04/16 02:31:10;;;;;;;7.17;3.93;;;1.00;99.90;;;;;;5053061;28;20221;-61
2021/04/16 02:33:37;;;;;;;7.73;4.30;;;1.10;99.90;;;;;;5053193;28;20263;-60
2021/04/16 02:36:04;;;;;;;5.93;3.40;;;1.10;99.90;;;;;;5053254;28;20681;-61
2021/04/16 02:38:30;;;;;;;5.00;3.13;;;1.00;99.90;;;;;;5053030;28;20221;-61
2021/04/16 02:40:56;;;;;;;4.20;3.27;;;0.90;99.90;;;;;;5053060;28;20217;-63
2021/04/16 02:43:23;;;;;;;6.73;4.07;;;0.90;99.90;;;;;;5052922;28;20209;-63
2021/04/16 02:45:49;;;;;;;3.97;3.10;;;0.90;99.90;;;;;;5052989;28;20623;-60
2021/04/16 02:48:16;;;;;;;4.70;3.30;;;0.80;99.90;;;;;;5052912;28;20727;-60
2021/04/16 02:50:43;;;;;;;4.63;3.30;;;0.80;99.90;;;;;;5052536;28;20242;-62
2021/04/16 02:53:10;;;;;;;5.40;3.50;;;0.80;99.90;;;;;;5052986;28;20681;-60
2021/04/16 02:55:36;;;;;;;7.57;3.60;;;0.80;99.90;;;;;;5052852;28;20259;-59
2021/04/16 02:58:03;;;;;;;5.40;3.27;;;0.80;99.90;;;;;;5052578;28;20222;-60
2021/04/16 03:00:32;;;;;;;5.87;3.17;;;0.80;99.90;;;;;;5052715;28;20665;-60
2021/04/16 03:02:59;;;;;;;5.83;3.87;;;0.80;99.90;;;;;;5053153;28;20211;-59
2021/04/16 03:05:26;;;;;;;4.57;3.10;;;0.80;99.90;;;;;;5052689;28;20228;-60
2021/04/16 03:07:53;;;;;;;4.70;3.07;;;0.80;99.90;;;;;;5053404;28;20302;-62
2021/04/16 03:10:22;;;;;;;4.77;3.20;;;0.90;99.90;;;;;;5052600;28;20697;-61
2021/04/16 03:12:48;;;;;;;4.47;3.20;;;0.80;99.90;;;;;;5052678;28;20206;-62
2021/04/16 03:15:15;;;;;;;4.77;3.20;;;0.80;99.90;;;;;;5052682;28;20267;-62
2021/04/16 03:17:41;;;;;;;5.63;3.37;;;0.80;99.90;;;;;;5052671;28;20232;-61
2021/04/16 03:20:10;;;;;;;5.80;3.40;;;0.70;99.90;;;;;;5052773;28;20581;-62
2021/04/16 03:22:36;;;;;;;5.23;3.07;;;0.70;99.90;;;;;;5052401;28;20673;-62
2021/04/16 03:25:04;;;;;;;4.63;3.60;;;0.70;99.90;;;;;;5052291;28;20217;-62
2021/04/16 03:27:30;;;;;;;6.60;3.50;;;0.60;99.90;;;;;;5052350;28;20630;-61
2021/04/16 03:29:56;;;;;;;4.97;2.97;;;0.60;99.90;;;;;;5052414;28;20225;-61
2021/04/16 03:32:22;;;;;;;4.40;2.97;;;0.50;99.90;;;;;;5052416;28;20661;-62
2021/04/16 03:34:48;;;;;;;4.03;3.20;;;0.50;99.90;;;;;;5052049;28;20235;-63
2021/04/16 03:37:15;;;;;;;4.27;3.53;;;0.40;99.90;;;;;;5052224;28;20271;-62
2021/04/16 03:39:41;;;;;;;7.43;5.73;;;0.30;99.90;;;;;;5051893;28;20280;-62
2021/04/16 03:42:08;;;;;;;4.50;3.50;;;0.30;99.90;;;;;;5052336;28;20210;-62
2021/04/16 03:44:34;;;;;;;22.47;17.03;;;0.20;99.90;;;;;;5051766;28;20205;-61
2021/04/16 03:47:01;;;;;;;5.40;4.00;;;0.20;99.90;;;;;;5052091;28;20577;-63
2021/04/16 03:49:27;;;;;;;6.10;4.10;;;0.30;99.90;;;;;;5051837;28;20205;-62
2021/04/16 03:51:56;;;;;;;6.27;4.37;;;0.30;99.90;;;;;;5051942;28;20206;-61
2021/04/16 03:54:23;;;;;;;4.87;4.30;;;0.30;99.90;;;;;;5051846;28;20279;-62
2021/04/16 03:56:49;;;;;;;9.73;6.87;;;0.30;99.90;;;;;;5052009;28;20221;-62
2021/04/16 03:59:18;;;;;;;8.70;5.50;;;0.40;99.90;;;;;;5051983;28;20202;-62
2021/04/16 04:01:44;;;;;;;8.17;6.37;;;0.40;99.90;;;;;;5051026;28;20202;-62
2021/04/16 04:04:11;;;;;;;5.53;4.40;;;0.40;99.90;;;;;;5051667;28;20213;-62
2021/04/16 04:06:37;;;;;;;6.13;4.57;;;0.50;99.90;;;;;;5051522;28;20240;-62
2021/04/16 04:09:04;;;;;;;7.87;4.53;;;0.50;99.90;;;;;;5051589;28;20206;-62
2021/04/16 04:11:31;;;;;;;6.97;4.67;;;0.60;99.90;;;;;;5052156;28;20355;-62
2021/04/16 04:13:58;;;;;;;8.30;5.50;;;0.60;99.90;;;;;;5052160;28;20217;-62
2021/04/16 04:16:25;;;;;;;6.83;4.77;;;0.60;99.90;;;;;;5052839;28;20209;-61
2021/04/16 04:18:51;;;;;;;7.50;5.07;;;0.50;99.90;;;;;;5053450;28;20206;-62
2021/04/16 04:21:17;;;;;;;8.43;5.40;;;0.50;99.90;;;;;;5051765;28;20270;-62
2021/04/16 04:23:44;;;;;;;7.23;4.90;;;0.50;99.90;;;;;;5051288;28;20214;-62
2021/04/16 04:26:10;;;;;;;12.47;8.70;;;0.50;99.90;;;;;;5051653;28;20213;-63
2021/04/16 04:28:36;;;;;;;6.27;4.13;;;0.50;99.90;;;;;;5051222;28;20801;-63
2021/04/16 04:31:02;;;;;;;5.07;3.87;;;0.40;99.90;;;;;;5051619;28;20233;-61
2021/04/16 04:33:29;;;;;;;4.63;3.90;;;0.50;99.90;;;;;;5051929;28;20213;-63
2021/04/16 04:35:56;;;;;;;6.37;3.90;;;0.50;99.90;;;;;;5051842;28;20583;-62
2021/04/16 04:38:22;;;;;;;7.47;3.93;;;0.60;99.90;;;;;;5051058;28;20256;-62
2021/04/16 04:40:50;;;;;;;6.20;4.00;;;0.50;99.90;;;;;;5052415;28;20210;-63
2021/04/16 04:43:16;;;;;;;5.97;3.97;;;0.60;99.90;;;;;;5053941;28;20202;-62
2021/04/16 04:45:42;;;;;;;6.23;4.37;;;0.50;99.90;;;;;;5052060;28;20205;-61
2021/04/16 04:48:09;;;;;;;9.37;4.30;;;0.50;99.90;;;;;;5051544;28;20462;-62
2021/04/16 04:50:36;;;;;;;6.87;4.13;;;0.40;99.90;;;;;;5051373;28;20312;-62
2021/04/16 04:53:02;;;;;;;6.10;4.07;;;0.40;99.90;;;;;;5051448;28;20604;-62
2021/04/16 04:55:32;;;;;;;9.67;5.37;;;0.60;99.90;;;;;;5051181;28;20661;-63
2021/04/16 04:57:58;;;;;;;7.80;4.50;;;0.70;99.90;;;;;;5051774;28;20275;-62
2021/04/16 05:00:26;;;;;;;6.20;4.30;;;0.80;99.90;;;;;;5051308;28;20201;-63
2021/04/16 05:02:52;;;;;;;5.37;3.83;;;0.80;99.90;;;;;;5051137;28;20214;-62
2021/04/16 05:05:21;;;;;;;5.40;4.00;;;1.00;99.90;;;;;;5050935;28;20255;-63
2021/04/16 05:07:48;;;;;;;4.43;3.63;;;1.00;99.90;;;;;;5050904;28;20233;-61
2021/04/16 05:10:15;;;;;;;7.97;4.07;;;1.10;99.90;;;;;;5051103;28;20224;-62
2021/04/16 05:12:42;;;;;;;13.80;5.07;;;1.20;99.90;;;;;;5051874;28;20676;-63
2021/04/16 05:15:09;;;;;;;14.40;8.37;;;1.20;99.90;;;;;;5054894;28;20220;-63
2021/04/16 05:17:35;;;;;;;8.87;3.97;;;1.20;99.90;;;;;;5054752;28;20232;-63
2021/04/16 05:20:02;;;;;;;14.40;4.63;;;1.30;99.90;;;;;;5054864;28;20255;-63
2021/04/16 05:22:29;;;;;;;10.03;5.20;;;1.30;99.90;;;;;;5054968;28;20201;-61
2021/04/16 05:24:56;;;;;;;6.33;4.07;;;1.40;99.90;;;;;;5054573;28;20209;-62
2021/04/16 05:27:22;;;;;;;8.00;4.37;;;1.40;99.90;;;;;;5054600;28;20222;-62
2021/04/16 05:29:49;;;;;;;7.23;3.87;;;1.30;99.90;;;;;;5054375;28;20229;-62
2021/04/16 05:32:15;;;;;;;9.80;5.30;;;1.30;99.90;;;;;;5054472;28;20296;-64
2021/04/16 05:34:42;;;;;;;7.40;4.00;;;1.50;99.90;;;;;;5054752;28;20212;-61
2021/04/16 05:37:09;;;;;;;6.77;4.20;;;1.90;99.90;;;;;;5054825;28;20257;-63
2021/04/16 05:39:35;;;;;;;7.03;4.60;;;2.20;99.90;;;;;;5054898;28;20583;-63
2021/04/16 05:42:02;;;;;;;7.13;4.43;;;2.60;99.90;;;;;;5054737;28;20205;-63
2021/04/16 05:44:28;;;;;;;5.93;4.60;;;2.90;99.70;;;;;;5054321;28;20267;-62
2021/04/16 05:46:54;;;;;;;14.30;8.10;;;3.40;99.40;;;;;;5054544;28;20705;-63
2021/04/16 05:49:21;;;;;;;9.50;7.10;;;4.00;98.50;;;;;;5054533;28;20231;-63
2021/04/16 05:51:48;;;;;;;7.23;4.40;;;4.40;98.00;;;;;;5054420;28;20229;-63
2021/04/16 05:54:14;;;;;;;6.97;5.17;;;4.80;97.30;;;;;;5054388;28;20210;-61
2021/04/16 05:56:40;;;;;;;8.13;4.53;;;5.40;96.00;;;;;;5054128;28;20220;-61
2021/04/16 05:59:07;;;;;;;9.97;4.50;;;5.80;94.90;;;;;;5054380;28;20232;-62
2021/04/16 06:01:34;;;;;;;7.70;4.63;;;6.20;94.30;;;;;;5054421;28;20233;-64
2021/04/16 06:04:00;;;;;;;9.10;5.10;;;6.70;93.20;;;;;;5054394;28;20393;-64
2021/04/16 06:06:26;;;;;;;8.53;4.87;;;7.20;92.90;;;;;;5053825;28;20602;-63
2021/04/16 06:08:53;;;;;;;10.13;4.27;;;8.70;91.10;;;;;;5053527;28;20213;-63
2021/04/16 06:11:19;;;;;;;9.37;4.00;;;10.60;84.50;;;;;;5054303;28;20221;-64
2021/04/16 06:13:45;;;;;;;4.93;3.77;;;12.50;78.80;;;;;;5053796;28;20202;-63
2021/04/16 06:16:12;;;;;;;6.00;4.00;;;14.40;70.90;;;;;;5053918;28;20205;-63
2021/04/16 06:18:38;;;;;;;5.10;3.13;;;15.50;65.60;;;;;;5053397;28;20770;-64
2021/04/16 06:21:05;;;;;;;7.50;4.77;;;16.50;61.70;;;;;;5053779;28;20202;-64
2021/04/16 06:23:32;;;;;;;5.10;3.73;;;17.10;59.30;;;;;;5053510;28;20205;-64
2021/04/16 06:25:59;;;;;;;5.20;4.17;;;16.90;57.60;;;;;;5053377;28;20213;-65
2021/04/16 06:28:25;;;;;;;4.10;3.27;;;16.30;57.60;;;;;;5053987;28;20229;-64
2021/04/16 06:30:52;;;;;;;3.83;2.87;;;15.60;58.50;;;;;;5053922;28;20754;-64
2021/04/16 06:33:24;;;;;;;3.70;3.30;;;15.10;59.40;;;;;;5054158;28;20665;-64
2021/04/16 06:35:54;;;;;;;3.20;2.90;;;14.50;60.80;;;;;;5053706;28;20206;-64
2021/04/16 06:38:23;;;;;;;3.53;3.03;;;13.90;62.10;;;;;;5053744;28;20222;-60
2021/04/16 06:40:52;;;;;;;3.53;3.07;;;13.10;64.70;;;;;;5053461;28;20263;-63
2021/04/16 06:43:21;;;;;;;5.37;3.73;;;11.60;67.50;;;;;;5053883;28;20213;-63
2021/04/16 06:45:53;;;;;;;6.40;4.13;;;10.50;71.10;;;;;;5053759;28;20213;-63
2021/04/16 06:48:20;;;;;;;6.83;4.83;;;9.90;75.10;;;;;;5053148;28;20709;-63
2021/04/16 06:50:46;;;;;;;3.07;2.70;;;9.40;77.50;;;;;;5052999;28;20665;-63
2021/04/16 06:53:18;;;;;;;3.37;2.87;;;9.00;80.60;;;;;;5053284;28;20836;-62
2021/04/16 06:55:54;;;;;;;3.63;3.13;;;8.60;81.90;;;;;;5053078;28;20251;-62
2021/04/16 06:58:25;;;;;;;4.63;3.40;;;8.30;83.30;;;;;;5053015;28;20236;-62
2021/04/16 07:01:05;;;;;;;3.57;2.77;;;8.20;84.70;;;;;;5053300;28;20198;-62
2021/04/16 07:03:35;;;;;;;5.97;3.27;;;7.90;86.30;;;;;;5052861;28;20216;-62
2021/04/16 07:06:13;;;;;;;6.03;3.37;;;7.90;86.70;;;;;;5053803;28;20208;-62
2021/04/16 07:08:42;;;;;;;4.57;3.10;;;7.80;87.50;;;;;;5053145;28;20233;-63
2021/04/16 07:11:19;;;;;;;4.70;3.60;;;7.90;88.00;;;;;;5053764;28;20585;-61
2021/04/16 07:13:46;;;;;;;3.90;3.60;;;7.90;88.40;;;;;;5053515;28;20205;-62
2021/04/16 07:16:12;;;;;;;3.70;3.40;;;7.90;88.20;;;;;;5053647;28;20206;-62
2021/04/16 07:18:42;;;;;;;3.27;2.83;;;7.80;89.20;;;;;;5053449;28;20256;-63
2021/04/16 07:21:12;;;;;;;3.67;3.33;;;7.60;89.70;;;;;;5054487;28;20205;-62
2021/04/16 07:23:45;;;;;;;5.73;4.93;;;7.30;90.60;;;;;;5055616;28;20217;-62
2021/04/16 07:26:27;;;;;;;4.83;3.43;;;7.30;90.90;;;;;;5055805;28;20228;-62
2021/04/16 07:28:56;;;;;;;5.70;3.70;;;7.40;91.00;;;;;;5054461;28;20213;-61
2021/04/16 07:31:43;;;;;;;4.53;3.20;;;7.60;90.70;;;;;;5053709;28;20225;-62
2021/04/16 07:34:29;;;;;;;4.03;3.63;;;7.70;90.70;;;;;;5052834;28;20292;-63
2021/04/16 07:36:56;;;;;;;3.77;3.37;;;7.60;90.90;;;;;;5052456;28;20274;-63
2021/04/16 07:39:30;;;;;;;3.80;3.40;;;7.70;90.90;;;;;;5052975;28;20205;-64
2021/04/16 07:42:13;;;;;;;3.60;3.27;;;7.60;91.20;;;;;;5052855;28;20252;-63
2021/04/16 07:44:42;;;;;;;3.90;3.40;;;7.50;91.30;;;;;;5052746;28;20206;-63
2021/04/16 07:47:16;;;;;;;3.83;3.43;;;7.50;91.60;;;;;;5052474;28;20276;-63
2021/04/16 07:49:55;;;;;;;4.40;3.90;;;7.60;91.50;;;;;;5052294;28;20204;-63
2021/04/16 07:52:26;;;;;;;5.33;3.67;;;7.80;91.20;;;;;;5052578;28;20209;-63
2021/04/16 07:55:06;;;;;;;4.20;3.73;;;7.90;91.10;;;;;;5053552;28;20205;-63
2021/04/16 07:57:35;;;;;;;4.97;4.07;;;8.00;91.00;;;;;;5053808;28;20598;-63
2021/04/16 08:00:04;;;;;;;5.13;3.90;;;8.00;90.90;;;;;;5053465;28;20634;-63
2021/04/16 08:02:33;;;;;;;3.80;3.40;;;7.90;91.30;;;;;;5053190;28;20631;-63
2021/04/16 08:05:11;;;;;;;4.40;3.80;;;7.80;91.40;;;;;;5053108;28;20205;-63
2021/04/16 08:07:37;;;;;;;4.50;3.57;;;7.60;91.60;;;;;;5052284;28;20878;-63
2021/04/16 08:10:14;;;;;;;4.77;3.53;;;7.50;91.90;;;;;;5052425;28;20209;-63
2021/04/16 08:12:41;;;;;;;5.37;3.70;;;7.50;92.00;;;;;;5052352;28;20701;-63
2021/04/16 08:15:27;;;;;;;6.97;3.87;;;7.60;91.80;;;;;;5052212;28;20205;-63
2021/04/16 08:17:53;;;;;;;4.47;3.80;;;7.80;91.80;;;;;;5052198;28;20256;-63
2021/04/16 08:20:28;;;;;;;3.80;3.40;;;7.70;91.90;;;;;;5052605;28;20197;-63
2021/04/16 08:22:55;;;;;;;4.37;3.97;;;7.80;91.60;;;;;;5052445;28;20222;-63
2021/04/16 08:25:33;;;;;;;4.53;4.13;;;7.90;91.70;;;;;;5051949;28;20209;-63
2021/04/16 08:28:03;;;;;;;4.87;4.17;;;7.70;91.90;;;;;;5051583;28;20229;-63
2021/04/16 08:30:42;;;;;;;6.40;4.10;;;7.80;92.10;;;;;;5052002;28;20228;-62
2021/04/16 08:33:16;;;;;;;5.47;4.47;;;8.10;91.60;;;;;;5051268;28;20220;-62
2021/04/16 08:35:53;;;;;;;7.47;4.30;;;8.20;91.00;;;;;;5051438;28;20212;-63
2021/04/16 08:38:23;;;;;;;6.03;4.40;;;8.10;90.90;;;;;;5051755;28;20290;-63
2021/04/16 08:40:52;;;;;;;5.23;4.30;;;8.10;91.10;;;;;;5051914;28;20202;-62
2021/04/16 08:43:31;;;;;;;5.90;4.40;;;8.20;90.60;;;;;;5051875;28;20209;-63
2021/04/16 08:46:00;;;;;;;5.97;4.57;;;8.20;90.50;;;;;;5052369;28;20209;-62
2021/04/16 08:48:30;;;;;;;5.00;4.50;;;8.20;90.70;;;;;;5051523;28;20263;-63
2021/04/16 08:51:02;;;;;;;4.13;3.73;;;8.40;90.30;;;;;;5052138;28;20709;-63
2021/04/16 08:53:29;;;;;;;4.60;4.13;;;8.30;90.20;;;;;;5051974;28;20220;-62
2021/04/16 08:55:55;;;;;;;5.37;4.07;;;8.40;90.60;;;;;;5051986;28;20205;-62
2021/04/16 08:58:28;;;;;;;4.83;4.33;;;8.80;90.30;;;;;;5052019;28;20233;-63
2021/04/16 09:00:57;;;;;;;5.07;4.10;;;9.30;88.70;;;;;;5052187;28;20197;-62
2021/04/16 09:03:27;;;;;;;4.70;3.97;;;9.80;85.70;;;;;;5052074;28;20431;-62
2021/04/16 09:05:57;;;;;;;7.83;5.70;;;10.20;82.90;;;;;;5052054;28;20209;-62
2021/04/16 09:08:37;;;;;;;4.57;3.50;;;10.80;81.80;;;;;;5099231;22;20228;-59
2021/04/16 09:11:05;;;;;;;6.73;4.20;;;11.60;77.30;;;;;;5090676;28;20228;-62
2021/04/16 09:13:58;;;;;;;4.60;3.90;;;12.10;75.60;;;;;;5091007;28;20625;-60
2021/04/16 09:16:55;;;;;;;4.57;3.53;;;11.90;74.70;;;;;;5090582;28;20208;-60
2021/04/16 09:19:59;;;;;;;3.83;3.50;;;11.90;75.00;;;;;;5069923;28;20213;-61
2021/04/16 09:22:43;;;;;;;5.27;3.60;;;12.20;74.50;;;;;;5070391;28;20594;-60
2021/04/16 09:25:38;;;;;;;5.77;3.30;;;12.40;73.60;;;;;;5070839;28;20200;-60
2021/04/16 09:28:34;;;;;;;4.57;3.60;;;11.90;72.40;;;;;;5070716;28;20220;-61
2021/04/16 09:31:03;;;;;;;4.20;3.40;;;11.70;72.60;;;;;;5070266;28;20723;-59
2021/04/16 09:33:42;;;;;;;4.10;3.70;;;11.30;73.20;;;;;;5070379;28;20204;-61
2021/04/16 09:36:10;;;;;;;4.00;3.60;;;11.00;74.40;;;;;;5070892;28;20568;-60
2021/04/16 09:39:02;;;;;;;4.23;3.83;;;11.10;75.00;;;;;;5071623;28;20453;-61
2021/04/16 09:41:34;;;;;;;3.97;3.37;;;11.30;75.40;;;;;;5060071;28;20197;-61
2021/04/16 09:44:16;;;;;;;3.70;3.37;;;11.60;74.20;;;;;;5070568;28;20213;-61
2021/04/16 09:46:48;;;;;;;4.03;3.30;;;12.20;73.00;;;;;;5070350;28;20216;-61
2021/04/16 09:49:31;;;;;;;6.07;4.20;;;12.50;71.00;;;;;;5070828;28;20600;-61
2021/04/16 09:51:59;;;;;;;3.60;3.30;;;12.40;70.20;;;;;;5071261;28;20252;-61
2021/04/16 09:54:40;;;;;;;3.77;3.30;;;12.20;70.80;;;;;;5070579;28;20208;-60
2021/04/16 09:57:44;;;;;;;3.90;3.17;;;12.20;70.80;;;;;;5070806;28;20665;-61
2021/04/16 10:00:46;;;;;;;3.80;3.40;;;12.00;69.90;;;;;;5072735;28;20205;-60
2021/04/16 10:03:24;;;;;;;3.33;3.03;;;12.00;70.20;;;;;;5072365;28;20656;-60
2021/04/16 10:05:51;;;;;;;3.50;3.20;;;12.00;69.90;;;;;;5074465;28;20208;-61
2021/04/16 10:08:27;;;;;;;4.23;3.80;;;11.90;69.80;;;;;;5073900;28;20240;-61
2021/04/16 10:11:01;;;;;;;3.73;3.40;;;11.70;70.20;;;;;;5074252;28;20726;-60
2021/04/16 10:13:31;;;;;;;6.43;4.40;;;11.60;69.90;;;;;;5073643;28;20692;-61
2021/04/16 10:15:59;;;;;;;3.57;3.13;;;11.10;71.40;;;;;;5074422;28;20227;-61
2021/04/16 10:18:32;;;;;;;5.87;3.20;;;10.60;72.20;;;;;;5073852;28;20225;-61
2021/04/16 10:21:07;;;;;;;3.93;3.33;;;10.40;73.00;;;;;;5073914;28;20196;-61
2021/04/16 10:23:38;;;;;;;4.60;3.53;;;10.20;74.70;;;;;;5074571;28;20232;-61
2021/04/16 12:38:44;;;;;;;6.33;5.10;;;12.60;62.80;;;;;;5051396;28;20649;-59
2021/04/16 12:41:16;;;;;;;3.67;3.00;;;12.60;61.90;;;;;;5051779;28;20765;-60
2021/04/16 12:43:44;;;;;;;3.63;2.70;;;12.40;62.60;;;;;;5051529;28;20681;-60
2021/04/16 12:46:14;;;;;;;2.30;2.10;;;12.40;61.70;;;;;;5051461;28;20235;-60
2021/04/16 12:48:40;;;;;;;2.63;2.30;;;12.20;62.20;;;;;;5051210;28;20225;-60
2021/04/16 12:51:06;;;;;;;2.13;1.93;;;12.00;62.70;;;;;;5051790;28;20221;-60
2021/04/16 12:53:32;;;;;;;2.53;1.97;;;12.00;62.90;;;;;;5051514;28;20213;-61
2021/04/16 12:55:59;;;;;;;2.93;2.40;;;12.00;62.40;;;;;;5051649;28;20201;-60
2021/04/16 12:58:27;;;;;;;3.07;1.83;;;11.60;62.90;;;;;;5051944;28;20232;-60
2021/04/16 13:00:55;;;;;;;2.73;1.90;;;11.30;63.30;;;;;;5052016;28;20206;-60
2021/04/16 13:03:26;;;;;;;2.97;1.90;;;11.40;64.10;;;;;;5052084;28;20212;-60
2021/04/16 13:05:52;;;;;;;2.50;1.90;;;11.60;64.00;;;;;;5052011;28;20212;-59
2021/04/16 13:08:19;;;;;;;2.60;1.90;;;11.70;63.60;;;;;;5051618;28;20635;-60
2021/04/16 13:10:46;;;;;;;3.13;2.30;;;11.80;63.20;;;;;;5051820;28;20764;-60
2021/04/16 13:13:12;;;;;;;3.10;1.80;;;12.00;63.10;;;;;;5052072;28;20212;-61
2021/04/16 13:15:39;;;;;;;2.10;1.80;;;12.10;62.30;;;;;;5052363;28;20202;-61
2021/04/16 13:18:14;;;;;;;1.93;1.73;;;12.10;62.20;;;;;;5052167;28;20255;-61
2021/04/16 13:20:51;;;;;;;2.17;1.80;;;11.90;61.30;;;;;;5052358;28;20212;-61
2021/04/16 13:23:18;;;;;;;1.70;1.60;;;11.70;61.70;;;;;;5052052;28;20220;-60
2021/04/16 13:25:44;;;;;;;1.80;1.70;;;11.70;62.10;;;;;;5051864;28;20210;-60
2021/04/16 13:28:11;;;;;;;1.73;1.63;;;11.90;61.40;;;;;;5051310;28;20333;-60
2021/04/16 13:30:37;;;;;;;2.10;1.90;;;12.00;61.60;;;;;;5050737;28;20684;-60
2021/04/16 13:33:10;;;;;;;3.30;1.97;;;11.60;61.20;;;;;;5051429;28;20212;-60
2021/04/16 13:35:38;;;;;;;1.60;1.50;;;11.20;61.10;;;;;;5055195;28;20237;-60
2021/04/16 13:38:07;;;;;;;2.60;1.90;;;11.10;62.00;;;;;;5054957;28;20236;-60
2021/04/16 13:40:33;;;;;;;2.30;1.80;;;11.40;61.90;;;;;;5055043;28;20224;-59
2021/04/16 13:42:59;;;;;;;1.70;1.60;;;11.60;61.70;;;;;;5055285;28;20202;-59
2021/04/16 13:45:26;;;;;;;2.20;2.00;;;11.70;61.10;;;;;;5054912;28;20236;-59
2021/04/16 13:47:52;;;;;;;2.43;2.00;;;11.50;61.70;;;;;;5054875;28;20225;-59
2021/04/16 13:50:20;;;;;;;2.47;1.70;;;11.50;61.90;;;;;;5054917;28;20213;-59
2021/04/16 13:52:47;;;;;;;2.00;1.80;;;11.30;62.60;;;;;;5055369;28;20212;-60
2021/04/16 13:55:16;;;;;;;1.60;1.50;;;11.20;63.70;;;;;;5054468;28;20583;-59
2021/04/16 13:57:43;;;;;;;2.17;1.80;;;11.20;63.20;;;;;;5054461;28;20232;-59
2021/04/16 14:00:13;;;;;;;1.70;1.50;;;11.30;63.20;;;;;;5054274;28;20665;-60
2021/04/16 14:02:46;;;;;;;2.77;1.70;;;11.40;63.80;;;;;;5054185;28;20251;-59
2021/04/16 14:05:15;;;;;;;2.40;2.20;;;11.50;63.10;;;;;;5054477;28;20213;-59
2021/04/16 14:07:43;;;;;;;2.67;2.07;;;11.80;62.00;;;;;;5054083;28;20233;-60
2021/04/16 14:10:11;;;;;;;2.37;1.70;;;11.60;62.80;;;;;;5054688;28;20203;-59
2021/04/16 14:12:37;;;;;;;2.00;1.63;;;11.70;62.40;;;;;;5054298;28;20237;-59
2021/04/16 14:15:05;;;;;;;1.87;1.60;;;11.50;62.00;;;;;;5055684;28;20636;-58
2021/04/16 14:17:36;;;;;;;1.80;1.70;;;11.60;62.90;;;;;;5055488;28;20221;-59
2021/04/16 14:20:11;;;;;;;3.23;1.73;;;11.70;61.00;;;;;;5054808;28;20206;-59
2021/04/16 14:22:40;;;;;;;1.93;1.73;;;11.60;61.40;;;;;;5055572;28;20429;-58
2021/04/16 14:25:09;;;;;;;2.00;1.70;;;11.70;61.60;;;;;;5054875;28;20207;-59
2021/04/16 14:27:36;;;;;;;6.70;1.90;;;11.90;61.60;;;;;;5054019;28;20225;-60
2021/04/16 14:30:05;;;;;;;1.90;1.70;;;12.00;60.90;;;;;;5054686;28;20210;-60
2021/04/16 14:32:31;;;;;;;2.70;1.70;;;12.30;60.50;;;;;;5053313;28;20609;-60
2021/04/16 14:34:57;;;;;;;1.70;1.60;;;12.30;59.70;;;;;;5053150;28;20287;-59
2021/04/16 14:37:23;;;;;;;2.30;1.90;;;11.90;60.60;;;;;;5054641;28;20233;-60
2021/04/16 14:39:50;;;;;;;2.63;1.80;;;11.70;60.90;;;;;;5053427;28;20206;-59
2021/04/16 14:42:17;;;;;;;2.73;1.63;;;11.30;62.00;;;;;;5053993;28;20202;-61
2021/04/16 14:44:43;;;;;;;1.83;1.63;;;11.00;62.70;;;;;;5053074;28;20585;-60
2021/04/16 14:47:10;;;;;;;1.80;1.70;;;10.70;63.70;;;;;;5053187;28;20201;-59
2021/04/16 14:49:36;;;;;;;1.60;1.50;;;10.40;64.90;;;;;;5053285;28;20212;-59
2021/04/16 14:52:05;;;;;;;1.80;1.70;;;10.20;65.20;;;;;;5052974;28;20230;-61
2021/04/16 14:54:34;;;;;;;2.03;1.87;;;9.90;67.30;;;;;;5052747;28;20213;-59
2021/04/16 14:57:02;;;;;;;2.40;2.20;;;9.60;68.60;;;;;;5052738;28;20213;-59
2021/04/16 14:59:34;;;;;;;2.80;2.40;;;9.50;69.40;;;;;;5052808;28;20210;-58
2021/04/16 15:02:00;;;;;;;3.53;2.10;;;9.50;69.40;;;;;;5052842;28;20205;-59
2021/04/16 15:04:27;;;;;;;2.80;2.13;;;9.40;70.10;;;;;;5053110;28;20218;-59
2021/04/16 15:06:56;;;;;;;2.40;2.03;;;9.20;70.00;;;;;;5053214;28;20201;-59
2021/04/16 15:09:24;;;;;;;4.07;2.00;;;8.90;70.80;;;;;;5088371;22;20511;-66
2021/04/16 15:11:51;;;;;;;2.50;2.20;;;8.90;71.20;;;;;;5077428;28;20232;-66
2021/04/16 15:14:21;;;;;;;1.80;1.70;;;9.00;71.20;;;;;;5076382;28;20201;-65
2021/04/16 15:16:51;;;;;;;4.03;2.00;;;8.90;71.20;;;;;;5075468;28;20205;-65